sensor_id;sensor_type;location;lat;lon;timestamp;temperature;humidity
2024;DHT22;1016;48.770;9.154;2023-05-14T00:02:12;14.50;99.90
2024;DHT22;1016;48.770;9.154;2023-05-14T00:04:38;14.50;99.90
2024;DHT22;1016;48.770;9.154;2023-05-14T00:07:04;14.50;99.90
2024;DHT22;1016;48.770;9.154;2023-05-14T00:09:31;14.50;99.90
2024;DHT22;1016;48.770;9.154;2023-05-14T00:11:56;14.50;99.90
2024;DHT22;1016;48.770;9.154;2023-05-14T00:14:22;14.50;99.90
2024;DHT22;1016;48.770;9.154;2023-05-14T00:16:48;14.50;99.90
2024;DHT22;1016;48.770;9.154;2023-05-14T00:19:13;14.50;99.90
2024;DHT22;1016;48.770;9.154;2023-05-14T00:21:39;14.50;99.90
2024;DHT22;1016;48.770;9.154;2023-05-14T00:24:05;14.50;99.90
2024;DHT22;1016;48.770;9.154;2023-05-14T00:26:30;14.40;99.90
2024;DHT22;1016;48.770;9.154;2023-05-14T00:28:56;14.50;99.90
2024;DHT22;1016;48.770;9.154;2023-05-14T00:31:21;14.40;99.90
2024;DHT22;1016;48.770;9.154;2023-05-14T00:33:47;14.40;99.90
2024;DHT22;1016;48.770;9.154;2023-05-14T00:36:12;14.40;99.90
2024;DHT22;1016;48.770;9.154;2023-05-14T00:38:38;14.40;99.90
2024;DHT22;1016;48.770;9.154;2023-05-14T00:41:03;14.40;99.90
2024;DHT22;1016;48.770;9.154;2023-05-14T00:43:29;14.50;99.90
2024;DHT22;1016;48.770;9.154;2023-05-14T00:45:56;14.40;99.90
2024;DHT22;1016;48.770;9.154;2023-05-14T00:48:22;14.40;99.90
2024;DHT22;1016;48.770;9.154;2023-05-14T00:50:48;14.40;99.90
2024;DHT22;1016;48.770;9.154;2023-05-14T00:53:15;14.40;99.90
2024;DHT22;1016;48.770;9.154;2023-05-14T00:55:41;14.40;99.90
2024;DHT22;1016;48.770;9.154;2023-05-14T00:58:10;14.30;99.90
2024;DHT22;1016;48.770;9.154;2023-05-14T01:00:37;14.40;99.90
2024;DHT22;1016;48.770;9.154;2023-05-14T01:03:04;14.40;99.90
2024;DHT22;1016;48.770;9.154;2023-05-14T01:05:37;14.40;99.90
2024;DHT22;1016;48.770;9.154;2023-05-14T01:08:21;14.30;99.90
2024;DHT22;1016;48.770;9.154;2023-05-14T01:10:59;14.40;99.90
2024;DHT22;1016;48.770;9.154;2023-05-14T01:13:37;14.40;99.90
2024;DHT22;1016;48.770;9.154;2023-05-14T01:16:07;14.40;99.90
2024;DHT22;1016;48.770;9.154;2023-05-14T01:18:36;14.30;99.90
2024;DHT22;1016;48.770;9.154;2023-05-14T01:21:03;14.30;99.90
2024;DHT22;1016;48.770;9.154;2023-05-14T01:23:29;14.20;99.90
2024;DHT22;1016;48.770;9.154;2023-05-14T01:25:54;14.10;99.90
2024;DHT22;1016;48.770;9.154;2023-05-14T01:28:26;14.10;99.90
2024;DHT22;1016;48.770;9.154;2023-05-14T01:30:58;14.10;99.90
2024;DHT22;1016;48.770;9.154;2023-05-14T01:33:28;14.00;99.90
2024;DHT22;1016;48.770;9.154;2023-05-14T01:35:54;14.00;99.90
2024;DHT22;1016;48.770;9.154;2023-05-14T01:38:20;14.00;99.90
2024;DHT22;1016;48.770;9.154;2023-05-14T01:40:48;13.90;99.90
2024;DHT22;1016;48.770;9.154;2023-05-14T01:43:15;13.90;99.90
2024;DHT22;1016;48.770;9.154;2023-05-14T01:45:41;13.80;99.90
2024;DHT22;1016;48.770;9.154;2023-05-14T01:48:06;13.80;99.90
2024;DHT22;1016;48.770;9.154;2023-05-14T01:50:32;13.80;99.90
2024;DHT22;1016;48.770;9.154;2023-05-14T01:52:58;13.80;99.90
2024;DHT22;1016;48.770;9.154;2023-05-14T01:55:23;13.70;99.90
2024;DHT22;1016;48.770;9.154;2023-05-14T01:57:50;13.70;99.90
2024;DHT22;1016;48.770;9.154;2023-05-14T02:00:16;13.70;99.90
2024;DHT22;1016;48.770;9.154;2023-05-14T02:02:42;13.60;99.90
2024;DHT22;1016;48.770;9.154;2023-05-14T02:05:12;13.60;99.90
2024;DHT22;1016;48.770;9.154;2023-05-14T02:07:37;13.60;99.90
2024;DHT22;1016;48.770;9.154;2023-05-14T02:10:03;13.60;99.90
2024;DHT22;1016;48.770;9.154;2023-05-14T02:12:29;13.60;99.90
2024;DHT22;1016;48.770;9.154;2023-05-14T02:14:55;13.60;99.90
2024;DHT22;1016;48.770;9.154;2023-05-14T02:17:20;13.60;99.90
2024;DHT22;1016;48.770;9.154;2023-05-14T02:19:46;13.60;99.90
2024;DHT22;1016;48.770;9.154;2023-05-14T02:22:12;13.60;99.90
2024;DHT22;1016;48.770;9.154;2023-05-14T02:24:37;13.60;99.90
2024;DHT22;1016;48.770;9.154;2023-05-14T02:27:03;13.60;99.90
2024;DHT22;1016;48.770;9.154;2023-05-14T02:29:29;13.50;99.90
2024;DHT22;1016;48.770;9.154;2023-05-14T02:31:55;13.60;99.90
2024;DHT22;1016;48.770;9.154;2023-05-14T02:34:20;13.60;99.90
2024;DHT22;1016;48.770;9.154;2023-05-14T02:36:46;13.60;99.90
2024;DHT22;1016;48.770;9.154;2023-05-14T02:39:11;13.60;99.90
2024;DHT22;1016;48.770;9.154;2023-05-14T02:41:37;13.60;99.90
2024;DHT22;1016;48.770;9.154;2023-05-14T02:44:02;13.70;99.90
2024;DHT22;1016;48.770;9.154;2023-05-14T02:46:30;13.70;99.90
2024;DHT22;1016;48.770;9.154;2023-05-14T02:48:56;13.70;99.90
2024;DHT22;1016;48.770;9.154;2023-05-14T02:51:21;13.60;99.90
2024;DHT22;1016;48.770;9.154;2023-05-14T02:53:47;13.70;99.90
2024;DHT22;1016;48.770;9.154;2023-05-14T02:56:12;13.70;99.90
2024;DHT22;1016;48.770;9.154;2023-05-14T02:58:38;13.70;99.90
2024;DHT22;1016;48.770;9.154;2023-05-14T03:01:03;13.70;99.90
2024;DHT22;1016;48.770;9.154;2023-05-14T03:03:29;13.70;99.90
2024;DHT22;1016;48.770;9.154;2023-05-14T03:05:55;13.80;99.90
2024;DHT22;1016;48.770;9.154;2023-05-14T03:08:20;13.80;99.90
2024;DHT22;1016;48.770;9.154;2023-05-14T03:10:46;13.70;99.90
2024;DHT22;1016;48.770;9.154;2023-05-14T03:13:12;13.70;99.90
2024;DHT22;1016;48.770;9.154;2023-05-14T03:15:38;13.70;99.90
2024;DHT22;1016;48.770;9.154;2023-05-14T03:18:04;13.70;99.90
2024;DHT22;1016;48.770;9.154;2023-05-14T03:20:30;13.90;99.90
2024;DHT22;1016;48.770;9.154;2023-05-14T03:22:56;13.80;99.90
2024;DHT22;1016;48.770;9.154;2023-05-14T03:25:21;13.70;99.90
2024;DHT22;1016;48.770;9.154;2023-05-14T03:27:47;13.80;99.90
2024;DHT22;1016;48.770;9.154;2023-05-14T03:30:13;13.80;99.90
2024;DHT22;1016;48.770;9.154;2023-05-14T03:32:38;13.80;99.90
2024;DHT22;1016;48.770;9.154;2023-05-14T03:35:04;13.80;99.90
2024;DHT22;1016;48.770;9.154;2023-05-14T03:37:30;13.80;99.90
2024;DHT22;1016;48.770;9.154;2023-05-14T03:39:55;13.70;99.90
2024;DHT22;1016;48.770;9.154;2023-05-14T03:42:21;13.70;99.90
2024;DHT22;1016;48.770;9.154;2023-05-14T03:44:46;13.70;99.90
2024;DHT22;1016;48.770;9.154;2023-05-14T03:47:12;13.70;99.90
2024;DHT22;1016;48.770;9.154;2023-05-14T03:49:37;13.80;99.90
2024;DHT22;1016;48.770;9.154;2023-05-14T03:52:03;13.80;99.90
2024;DHT22;1016;48.770;9.154;2023-05-14T03:54:28;13.80;99.90
2024;DHT22;1016;48.770;9.154;2023-05-14T03:56:54;13.80;99.90
2024;DHT22;1016;48.770;9.154;2023-05-14T03:59:19;13.80;99.90
2024;DHT22;1016;48.770;9.154;2023-05-14T04:01:45;13.90;99.90
2024;DHT22;1016;48.770;9.154;2023-05-14T04:04:10;13.90;99.90
2024;DHT22;1016;48.770;9.154;2023-05-14T04:06:36;13.80;99.90
2024;DHT22;1016;48.770;9.154;2023-05-14T04:09:02;13.80;99.90
2024;DHT22;1016;48.770;9.154;2023-05-14T04:11:28;13.80;99.90
2024;DHT22;1016;48.770;9.154;2023-05-14T04:13:53;13.80;99.90
2024;DHT22;1016;48.770;9.154;2023-05-14T04:16:19;13.80;99.90
2024;DHT22;1016;48.770;9.154;2023-05-14T04:18:45;13.90;99.90
2024;DHT22;1016;48.770;9.154;2023-05-14T04:21:10;13.90;99.90
2024;DHT22;1016;48.770;9.154;2023-05-14T04:23:36;13.90;99.90
2024;DHT22;1016;48.770;9.154;2023-05-14T04:26:02;13.90;99.90
2024;DHT22;1016;48.770;9.154;2023-05-14T04:28:28;13.80;99.90
2024;DHT22;1016;48.770;9.154;2023-05-14T04:30:53;13.70;99.90
2024;DHT22;1016;48.770;9.154;2023-05-14T04:33:18;13.70;99.90
2024;DHT22;1016;48.770;9.154;2023-05-14T04:35:44;13.80;99.90
2024;DHT22;1016;48.770;9.154;2023-05-14T04:38:10;13.80;99.90
2024;DHT22;1016;48.770;9.154;2023-05-14T04:40:36;13.90;99.90
2024;DHT22;1016;48.770;9.154;2023-05-14T04:43:01;13.90;99.90
2024;DHT22;1016;48.770;9.154;2023-05-14T04:45:27;13.90;99.90
2024;DHT22;1016;48.770;9.154;2023-05-14T04:47:52;13.90;99.90
2024;DHT22;1016;48.770;9.154;2023-05-14T04:50:18;13.90;99.90
2024;DHT22;1016;48.770;9.154;2023-05-14T04:52:43;13.80;99.90
2024;DHT22;1016;48.770;9.154;2023-05-14T04:55:09;13.80;99.90
2024;DHT22;1016;48.770;9.154;2023-05-14T04:57:34;13.90;99.90
2024;DHT22;1016;48.770;9.154;2023-05-14T05:00:00;13.90;99.90
2024;DHT22;1016;48.770;9.154;2023-05-14T05:02:26;13.90;99.90
2024;DHT22;1016;48.770;9.154;2023-05-14T05:04:51;13.90;99.90
2024;DHT22;1016;48.770;9.154;2023-05-14T05:07:17;14.00;99.90
2024;DHT22;1016;48.770;9.154;2023-05-14T05:09:42;14.00;99.90
2024;DHT22;1016;48.770;9.154;2023-05-14T05:12:08;14.00;99.90
2024;DHT22;1016;48.770;9.154;2023-05-14T05:14:34;14.00;99.90
2024;DHT22;1016;48.770;9.154;2023-05-14T05:16:59;14.00;99.90
2024;DHT22;1016;48.770;9.154;2023-05-14T05:19:25;14.00;99.90
2024;DHT22;1016;48.770;9.154;2023-05-14T05:21:50;13.90;99.90
2024;DHT22;1016;48.770;9.154;2023-05-14T05:24:16;13.90;99.90
2024;DHT22;1016;48.770;9.154;2023-05-14T05:26:41;13.80;99.90
2024;DHT22;1016;48.770;9.154;2023-05-14T05:29:07;13.80;99.90
2024;DHT22;1016;48.770;9.154;2023-05-14T05:31:32;13.80;99.90
2024;DHT22;1016;48.770;9.154;2023-05-14T05:33:59;13.90;99.90
2024;DHT22;1016;48.770;9.154;2023-05-14T05:36:25;13.90;99.90
2024;DHT22;1016;48.770;9.154;2023-05-14T05:38:51;13.90;99.90
2024;DHT22;1016;48.770;9.154;2023-05-14T05:41:16;13.80;99.90
2024;DHT22;1016;48.770;9.154;2023-05-14T05:43:42;13.80;99.90
2024;DHT22;1016;48.770;9.154;2023-05-14T05:46:07;13.80;99.90
2024;DHT22;1016;48.770;9.154;2023-05-14T05:48:33;13.80;99.90
2024;DHT22;1016;48.770;9.154;2023-05-14T05:50:58;13.80;99.90
2024;DHT22;1016;48.770;9.154;2023-05-14T05:53:24;13.80;99.90
2024;DHT22;1016;48.770;9.154;2023-05-14T05:55:49;13.90;99.90
2024;DHT22;1016;48.770;9.154;2023-05-14T05:58:16;13.90;99.90
2024;DHT22;1016;48.770;9.154;2023-05-14T06:00:42;13.90;99.90
2024;DHT22;1016;48.770;9.154;2023-05-14T06:03:07;13.90;99.90
2024;DHT22;1016;48.770;9.154;2023-05-14T06:05:33;14.00;99.90
2024;DHT22;1016;48.770;9.154;2023-05-14T06:07:58;14.00;99.90
2024;DHT22;1016;48.770;9.154;2023-05-14T06:10:24;14.00;99.90
2024;DHT22;1016;48.770;9.154;2023-05-14T06:12:49;14.00;99.90
2024;DHT22;1016;48.770;9.154;2023-05-14T06:15:15;14.00;99.90
2024;DHT22;1016;48.770;9.154;2023-05-14T06:17:40;14.00;99.90
2024;DHT22;1016;48.770;9.154;2023-05-14T06:20:06;14.00;99.90
2024;DHT22;1016;48.770;9.154;2023-05-14T06:22:33;13.90;99.90
2024;DHT22;1016;48.770;9.154;2023-05-14T06:24:59;13.90;99.90
2024;DHT22;1016;48.770;9.154;2023-05-14T06:27:24;13.90;99.90
2024;DHT22;1016;48.770;9.154;2023-05-14T06:29:50;14.00;99.90
2024;DHT22;1016;48.770;9.154;2023-05-14T06:32:15;14.00;99.90
2024;DHT22;1016;48.770;9.154;2023-05-14T06:34:41;14.10;99.90
2024;DHT22;1016;48.770;9.154;2023-05-14T06:37:07;14.10;99.90
2024;DHT22;1016;48.770;9.154;2023-05-14T06:39:34;14.10;99.90
2024;DHT22;1016;48.770;9.154;2023-05-14T06:41:59;14.10;99.90
2024;DHT22;1016;48.770;9.154;2023-05-14T06:44:26;14.20;99.90
2024;DHT22;1016;48.770;9.154;2023-05-14T06:46:51;14.10;99.90
2024;DHT22;1016;48.770;9.154;2023-05-14T06:49:17;14.10;99.90
2024;DHT22;1016;48.770;9.154;2023-05-14T06:51:43;14.20;99.90
2024;DHT22;1016;48.770;9.154;2023-05-14T06:54:08;14.20;99.90
2024;DHT22;1016;48.770;9.154;2023-05-14T06:56:34;14.30;99.90
2024;DHT22;1016;48.770;9.154;2023-05-14T06:58:59;14.30;99.90
2024;DHT22;1016;48.770;9.154;2023-05-14T07:01:25;14.30;99.90
2024;DHT22;1016;48.770;9.154;2023-05-14T07:03:50;14.30;99.90
2024;DHT22;1016;48.770;9.154;2023-05-14T07:06:16;14.30;99.90
2024;DHT22;1016;48.770;9.154;2023-05-14T07:08:42;14.40;99.90
2024;DHT22;1016;48.770;9.154;2023-05-14T07:11:10;14.40;99.90
2024;DHT22;1016;48.770;9.154;2023-05-14T07:13:35;14.40;99.90
2024;DHT22;1016;48.770;9.154;2023-05-14T07:16:01;14.50;99.90
2024;DHT22;1016;48.770;9.154;2023-05-14T07:18:26;14.40;99.90
2024;DHT22;1016;48.770;9.154;2023-05-14T07:20:52;14.50;99.90
2024;DHT22;1016;48.770;9.154;2023-05-14T07:23:18;14.50;99.90
2024;DHT22;1016;48.770;9.154;2023-05-14T07:25:43;14.40;99.90
2024;DHT22;1016;48.770;9.154;2023-05-14T07:28:09;14.50;99.90
2024;DHT22;1016;48.770;9.154;2023-05-14T07:30:35;14.50;99.90
2024;DHT22;1016;48.770;9.154;2023-05-14T07:33:00;14.50;99.90
2024;DHT22;1016;48.770;9.154;2023-05-14T07:35:26;14.50;99.90
2024;DHT22;1016;48.770;9.154;2023-05-14T07:37:51;14.60;99.90
2024;DHT22;1016;48.770;9.154;2023-05-14T07:40:17;14.60;99.90
2024;DHT22;1016;48.770;9.154;2023-05-14T07:42:42;14.60;99.90
2024;DHT22;1016;48.770;9.154;2023-05-14T07:45:08;14.70;99.90
2024;DHT22;1016;48.770;9.154;2023-05-14T07:47:34;14.70;99.90
2024;DHT22;1016;48.770;9.154;2023-05-14T07:49:59;14.70;99.90
2024;DHT22;1016;48.770;9.154;2023-05-14T07:52:25;14.70;99.90
2024;DHT22;1016;48.770;9.154;2023-05-14T07:54:51;14.80;99.90
2024;DHT22;1016;48.770;9.154;2023-05-14T07:57:17;14.80;99.90
2024;DHT22;1016;48.770;9.154;2023-05-14T07:59:43;14.80;99.90
2024;DHT22;1016;48.770;9.154;2023-05-14T08:02:08;14.90;99.90
2024;DHT22;1016;48.770;9.154;2023-05-14T08:04:37;14.90;99.90
2024;DHT22;1016;48.770;9.154;2023-05-14T08:07:03;15.00;99.90
2024;DHT22;1016;48.770;9.154;2023-05-14T08:09:29;15.10;99.90
2024;DHT22;1016;48.770;9.154;2023-05-14T08:11:54;15.20;99.90
2024;DHT22;1016;48.770;9.154;2023-05-14T08:14:20;15.20;99.90
2024;DHT22;1016;48.770;9.154;2023-05-14T08:16:45;15.30;99.90
2024;DHT22;1016;48.770;9.154;2023-05-14T08:19:12;15.30;99.90
2024;DHT22;1016;48.770;9.154;2023-05-14T08:21:37;15.40;99.90
2024;DHT22;1016;48.770;9.154;2023-05-14T08:24:03;15.50;99.90
2024;DHT22;1016;48.770;9.154;2023-05-14T08:26:29;15.50;99.90
2024;DHT22;1016;48.770;9.154;2023-05-14T08:28:54;15.40;99.90
2024;DHT22;1016;48.770;9.154;2023-05-14T08:31:19;15.30;99.90
2024;DHT22;1016;48.770;9.154;2023-05-14T08:33:45;15.30;99.90
2024;DHT22;1016;48.770;9.154;2023-05-14T08:36:10;15.40;99.90
2024;DHT22;1016;48.770;9.154;2023-05-14T08:38:36;15.40;99.90
2024;DHT22;1016;48.770;9.154;2023-05-14T08:41:04;15.50;99.90
2024;DHT22;1016;48.770;9.154;2023-05-14T08:43:37;15.50;99.90
2024;DHT22;1016;48.770;9.154;2023-05-14T08:46:07;15.60;99.90
2024;DHT22;1016;48.770;9.154;2023-05-14T08:48:35;15.70;99.90
2024;DHT22;1016;48.770;9.154;2023-05-14T08:51:02;15.80;99.90
2024;DHT22;1016;48.770;9.154;2023-05-14T08:53:27;16.00;99.90
2024;DHT22;1016;48.770;9.154;2023-05-14T08:55:53;16.10;99.90
2024;DHT22;1016;48.770;9.154;2023-05-14T08:58:19;16.10;99.90
2024;DHT22;1016;48.770;9.154;2023-05-14T09:00:45;16.10;99.90
2024;DHT22;1016;48.770;9.154;2023-05-14T09:03:11;16.20;99.90
2024;DHT22;1016;48.770;9.154;2023-05-14T09:05:38;16.30;99.90
2024;DHT22;1016;48.770;9.154;2023-05-14T09:08:03;16.40;99.90
2024;DHT22;1016;48.770;9.154;2023-05-14T09:10:29;16.40;99.90
2024;DHT22;1016;48.770;9.154;2023-05-14T09:12:55;16.50;99.90
2024;DHT22;1016;48.770;9.154;2023-05-14T09:15:20;16.50;99.90
2024;DHT22;1016;48.770;9.154;2023-05-14T09:17:47;16.40;99.90
2024;DHT22;1016;48.770;9.154;2023-05-14T09:20:13;16.50;99.90
2024;DHT22;1016;48.770;9.154;2023-05-14T09:22:39;16.50;99.90
2024;DHT22;1016;48.770;9.154;2023-05-14T09:25:07;16.50;99.90
2024;DHT22;1016;48.770;9.154;2023-05-14T09:27:34;16.70;99.90
2024;DHT22;1016;48.770;9.154;2023-05-14T09:30:07;16.70;99.90
2024;DHT22;1016;48.770;9.154;2023-05-14T09:32:40;16.80;99.90
2024;DHT22;1016;48.770;9.154;2023-05-14T09:35:19;16.90;99.90
2024;DHT22;1016;48.770;9.154;2023-05-14T09:37:50;17.00;99.90
2024;DHT22;1016;48.770;9.154;2023-05-14T09:40:17;17.10;99.90
2024;DHT22;1016;48.770;9.154;2023-05-14T09:42:43;17.10;99.90
2024;DHT22;1016;48.770;9.154;2023-05-14T09:45:10;17.20;99.90
2024;DHT22;1016;48.770;9.154;2023-05-14T09:47:36;17.20;99.90
2024;DHT22;1016;48.770;9.154;2023-05-14T09:50:02;17.10;99.90
2024;DHT22;1016;48.770;9.154;2023-05-14T09:52:28;17.10;99.90
2024;DHT22;1016;48.770;9.154;2023-05-14T09:54:54;17.00;99.90
2024;DHT22;1016;48.770;9.154;2023-05-14T09:57:20;17.10;99.90
2024;DHT22;1016;48.770;9.154;2023-05-14T09:59:45;17.20;99.90
2024;DHT22;1016;48.770;9.154;2023-05-14T10:02:25;17.20;99.90
2024;DHT22;1016;48.770;9.154;2023-05-14T10:04:53;17.30;99.90
2024;DHT22;1016;48.770;9.154;2023-05-14T10:07:26;17.30;99.90
2024;DHT22;1016;48.770;9.154;2023-05-14T10:09:56;17.30;99.90
2024;DHT22;1016;48.770;9.154;2023-05-14T10:12:26;17.30;99.90
2024;DHT22;1016;48.770;9.154;2023-05-14T10:14:55;17.20;99.90
2024;DHT22;1016;48.770;9.154;2023-05-14T10:17:22;17.30;99.90
2024;DHT22;1016;48.770;9.154;2023-05-14T10:19:52;17.20;99.90
2024;DHT22;1016;48.770;9.154;2023-05-14T10:22:25;17.10;99.90
2024;DHT22;1016;48.770;9.154;2023-05-14T10:24:52;17.10;99.90
2024;DHT22;1016;48.770;9.154;2023-05-14T10:27:21;17.00;99.90
2024;DHT22;1016;48.770;9.154;2023-05-14T10:29:51;16.90;99.90
2024;DHT22;1016;48.770;9.154;2023-05-14T10:32:19;17.00;99.90
2024;DHT22;1016;48.770;9.154;2023-05-14T10:34:45;17.00;99.90
2024;DHT22;1016;48.770;9.154;2023-05-14T10:37:21;17.00;99.90
2024;DHT22;1016;48.770;9.154;2023-05-14T10:44:54;17.20;99.90
2024;DHT22;1016;48.770;9.154;2023-05-14T10:47:22;17.30;99.90
2024;DHT22;1016;48.770;9.154;2023-05-14T10:49:48;17.30;99.90
2024;DHT22;1016;48.770;9.154;2023-05-14T10:52:16;17.30;99.90
2024;DHT22;1016;48.770;9.154;2023-05-14T10:57:20;17.30;99.90
2024;DHT22;1016;48.770;9.154;2023-05-14T10:59:51;17.40;99.90
2024;DHT22;1016;48.770;9.154;2023-05-14T11:02:24;17.40;99.90
2024;DHT22;1016;48.770;9.154;2023-05-14T11:05:07;17.50;99.90
2024;DHT22;1016;48.770;9.154;2023-05-14T11:07:37;17.50;99.90
2024;DHT22;1016;48.770;9.154;2023-05-14T11:10:14;17.50;99.90
2024;DHT22;1016;48.770;9.154;2023-05-14T11:12:42;17.50;99.90
2024;DHT22;1016;48.770;9.154;2023-05-14T11:15:10;17.60;99.90
2024;DHT22;1016;48.770;9.154;2023-05-14T11:17:36;17.60;99.90
2024;DHT22;1016;48.770;9.154;2023-05-14T11:20:03;17.50;99.90
2024;DHT22;1016;48.770;9.154;2023-05-14T11:22:33;17.50;99.90
2024;DHT22;1016;48.770;9.154;2023-05-14T11:24:58;17.50;99.90
2024;DHT22;1016;48.770;9.154;2023-05-14T11:27:24;17.60;99.90
2024;DHT22;1016;48.770;9.154;2023-05-14T11:29:50;17.60;99.90
2024;DHT22;1016;48.770;9.154;2023-05-14T11:32:17;17.50;99.90
2024;DHT22;1016;48.770;9.154;2023-05-14T11:34:44;17.60;99.90
2024;DHT22;1016;48.770;9.154;2023-05-14T11:37:11;17.50;99.90
2024;DHT22;1016;48.770;9.154;2023-05-14T11:39:38;17.50;99.90
2024;DHT22;1016;48.770;9.154;2023-05-14T11:42:09;17.60;99.90
2024;DHT22;1016;48.770;9.154;2023-05-14T11:44:37;17.80;99.90
2024;DHT22;1016;48.770;9.154;2023-05-14T11:47:03;17.80;99.90
2024;DHT22;1016;48.770;9.154;2023-05-14T11:49:29;17.90;99.90
2024;DHT22;1016;48.770;9.154;2023-05-14T11:51:57;17.90;99.90
2024;DHT22;1016;48.770;9.154;2023-05-14T11:54:25;17.90;99.90
2024;DHT22;1016;48.770;9.154;2023-05-14T11:56:51;17.90;99.90
2024;DHT22;1016;48.770;9.154;2023-05-14T11:59:17;17.90;99.90
2024;DHT22;1016;48.770;9.154;2023-05-14T12:01:44;17.80;99.90
2024;DHT22;1016;48.770;9.154;2023-05-14T12:04:12;17.80;99.90
2024;DHT22;1016;48.770;9.154;2023-05-14T12:06:38;17.70;99.90
2024;DHT22;1016;48.770;9.154;2023-05-14T12:09:05;17.80;99.90
2024;DHT22;1016;48.770;9.154;2023-05-14T12:11:31;17.80;99.90
2024;DHT22;1016;48.770;9.154;2023-05-14T12:13:58;17.90;99.90
2024;DHT22;1016;48.770;9.154;2023-05-14T12:16:29;18.00;99.90
2024;DHT22;1016;48.770;9.154;2023-05-14T12:19:00;18.10;99.90
2024;DHT22;1016;48.770;9.154;2023-05-14T12:21:27;18.20;99.90
2024;DHT22;1016;48.770;9.154;2023-05-14T12:23:57;18.30;99.90
2024;DHT22;1016;48.770;9.154;2023-05-14T12:26:24;18.50;99.90
2024;DHT22;1016;48.770;9.154;2023-05-14T12:28:58;18.40;99.90
2024;DHT22;1016;48.770;9.154;2023-05-14T12:31:28;18.40;99.90
2024;DHT22;1016;48.770;9.154;2023-05-14T12:33:54;18.50;99.90
2024;DHT22;1016;48.770;9.154;2023-05-14T12:36:19;18.60;99.90
2024;DHT22;1016;48.770;9.154;2023-05-14T12:38:45;18.60;99.90
2024;DHT22;1016;48.770;9.154;2023-05-14T12:41:11;18.60;99.90
2024;DHT22;1016;48.770;9.154;2023-05-14T12:43:36;18.60;99.90
2024;DHT22;1016;48.770;9.154;2023-05-14T12:46:02;18.60;99.90
2024;DHT22;1016;48.770;9.154;2023-05-14T12:48:27;18.60;99.90
2024;DHT22;1016;48.770;9.154;2023-05-14T12:50:53;18.60;99.90
2024;DHT22;1016;48.770;9.154;2023-05-14T12:53:18;18.60;99.90
2024;DHT22;1016;48.770;9.154;2023-05-14T12:55:44;18.60;99.90
2024;DHT22;1016;48.770;9.154;2023-05-14T12:58:09;18.60;99.90
2024;DHT22;1016;48.770;9.154;2023-05-14T13:00:35;18.60;99.90
2024;DHT22;1016;48.770;9.154;2023-05-14T13:03:00;18.60;99.90
2024;DHT22;1016;48.770;9.154;2023-05-14T13:05:26;18.70;99.90
2024;DHT22;1016;48.770;9.154;2023-05-14T13:07:51;18.80;99.90
2024;DHT22;1016;48.770;9.154;2023-05-14T13:10:18;18.80;99.90
2024;DHT22;1016;48.770;9.154;2023-05-14T13:12:43;18.70;99.90
2024;DHT22;1016;48.770;9.154;2023-05-14T13:15:09;18.60;99.90
2024;DHT22;1016;48.770;9.154;2023-05-14T13:17:35;18.70;99.90
2024;DHT22;1016;48.770;9.154;2023-05-14T13:20:01;18.80;99.90
2024;DHT22;1016;48.770;9.154;2023-05-14T13:22:27;18.90;99.90
2024;DHT22;1016;48.770;9.154;2023-05-14T13:24:52;19.00;99.90
2024;DHT22;1016;48.770;9.154;2023-05-14T13:27:18;19.10;99.90
2024;DHT22;1016;48.770;9.154;2023-05-14T13:29:43;19.20;99.90
2024;DHT22;1016;48.770;9.154;2023-05-14T13:32:08;19.40;99.90
2024;DHT22;1016;48.770;9.154;2023-05-14T13:34:34;19.40;99.90
2024;DHT22;1016;48.770;9.154;2023-05-14T13:37:00;19.40;99.90
2024;DHT22;1016;48.770;9.154;2023-05-14T13:39:26;19.30;99.90
2024;DHT22;1016;48.770;9.154;2023-05-14T13:41:53;19.20;99.90
2024;DHT22;1016;48.770;9.154;2023-05-14T13:44:20;19.00;99.90
2024;DHT22;1016;48.770;9.154;2023-05-14T13:46:46;18.80;99.90
2024;DHT22;1016;48.770;9.154;2023-05-14T13:49:11;18.80;99.90
2024;DHT22;1016;48.770;9.154;2023-05-14T13:51:37;18.60;99.90
2024;DHT22;1016;48.770;9.154;2023-05-14T13:54:02;18.50;99.90
2024;DHT22;1016;48.770;9.154;2023-05-14T13:56:28;18.50;99.90
2024;DHT22;1016;48.770;9.154;2023-05-14T13:58:53;18.40;99.90
2024;DHT22;1016;48.770;9.154;2023-05-14T14:01:19;18.40;99.90
2024;DHT22;1016;48.770;9.154;2023-05-14T14:03:44;18.50;99.90
2024;DHT22;1016;48.770;9.154;2023-05-14T14:06:10;18.30;99.90
2024;DHT22;1016;48.770;9.154;2023-05-14T14:08:36;18.40;99.90
2024;DHT22;1016;48.770;9.154;2023-05-14T14:11:01;18.30;99.90
2024;DHT22;1016;48.770;9.154;2023-05-14T14:13:26;18.30;99.90
2024;DHT22;1016;48.770;9.154;2023-05-14T14:15:53;18.20;99.90
2024;DHT22;1016;48.770;9.154;2023-05-14T14:18:19;18.30;99.90
2024;DHT22;1016;48.770;9.154;2023-05-14T14:20:45;18.30;99.90
2024;DHT22;1016;48.770;9.154;2023-05-14T14:23:10;18.30;99.90
2024;DHT22;1016;48.770;9.154;2023-05-14T14:25:36;18.30;99.90
2024;DHT22;1016;48.770;9.154;2023-05-14T14:28:01;18.30;99.90
2024;DHT22;1016;48.770;9.154;2023-05-14T14:30:27;18.40;99.90
2024;DHT22;1016;48.770;9.154;2023-05-14T14:32:52;18.60;99.90
2024;DHT22;1016;48.770;9.154;2023-05-14T14:35:18;18.70;99.90
2024;DHT22;1016;48.770;9.154;2023-05-14T14:37:45;18.80;99.90
2024;DHT22;1016;48.770;9.154;2023-05-14T14:40:14;18.90;99.90
2024;DHT22;1016;48.770;9.154;2023-05-14T14:42:41;18.90;99.90
2024;DHT22;1016;48.770;9.154;2023-05-14T14:45:07;18.90;99.90
2024;DHT22;1016;48.770;9.154;2023-05-14T14:47:34;18.90;99.90
2024;DHT22;1016;48.770;9.154;2023-05-14T14:50:00;18.90;99.90
2024;DHT22;1016;48.770;9.154;2023-05-14T14:52:27;18.80;99.90
2024;DHT22;1016;48.770;9.154;2023-05-14T14:54:53;18.80;99.90
2024;DHT22;1016;48.770;9.154;2023-05-14T14:57:19;18.90;99.90
2024;DHT22;1016;48.770;9.154;2023-05-14T14:59:46;18.90;99.90
2024;DHT22;1016;48.770;9.154;2023-05-14T15:02:12;18.90;99.90
2024;DHT22;1016;48.770;9.154;2023-05-14T15:04:37;18.90;99.90
2024;DHT22;1016;48.770;9.154;2023-05-14T15:07:03;18.90;99.90
2024;DHT22;1016;48.770;9.154;2023-05-14T15:09:29;18.90;99.90
2024;DHT22;1016;48.770;9.154;2023-05-14T15:11:55;18.90;99.90
2024;DHT22;1016;48.770;9.154;2023-05-14T15:14:21;18.90;99.90
2024;DHT22;1016;48.770;9.154;2023-05-14T15:16:46;18.90;99.90
2024;DHT22;1016;48.770;9.154;2023-05-14T15:19:12;18.90;99.90
2024;DHT22;1016;48.770;9.154;2023-05-14T15:21:38;18.80;99.90
2024;DHT22;1016;48.770;9.154;2023-05-14T15:24:04;18.90;99.90
2024;DHT22;1016;48.770;9.154;2023-05-14T15:26:29;18.90;99.90
2024;DHT22;1016;48.770;9.154;2023-05-14T15:28:55;18.90;99.90
2024;DHT22;1016;48.770;9.154;2023-05-14T15:31:22;19.00;99.90
2024;DHT22;1016;48.770;9.154;2023-05-14T15:33:48;19.10;99.90
2024;DHT22;1016;48.770;9.154;2023-05-14T15:36:13;19.10;99.90
2024;DHT22;1016;48.770;9.154;2023-05-14T15:38:39;19.10;99.90
2024;DHT22;1016;48.770;9.154;2023-05-14T15:41:05;19.10;99.90
2024;DHT22;1016;48.770;9.154;2023-05-14T15:43:30;19.10;99.90
2024;DHT22;1016;48.770;9.154;2023-05-14T15:45:56;19.10;99.90
2024;DHT22;1016;48.770;9.154;2023-05-14T15:48:21;19.10;99.90
2024;DHT22;1016;48.770;9.154;2023-05-14T15:50:47;19.00;99.90
2024;DHT22;1016;48.770;9.154;2023-05-14T15:53:13;18.80;99.90
2024;DHT22;1016;48.770;9.154;2023-05-14T15:55:39;18.70;99.90
2024;DHT22;1016;48.770;9.154;2023-05-14T15:58:04;18.60;99.90
2024;DHT22;1016;48.770;9.154;2023-05-14T16:00:30;18.50;99.90
2024;DHT22;1016;48.770;9.154;2023-05-14T16:02:56;18.50;99.90
2024;DHT22;1016;48.770;9.154;2023-05-14T16:05:22;18.40;99.90